createdAt,value
2019-04-28T00:01:17.181Z,75.40
2019-04-28T00:02:50.756Z,75.20
2019-04-28T00:04:23.053Z,75.10
2019-04-28T00:05:55.465Z,75.20
2019-04-28T00:07:29.583Z,75.20
2019-04-28T00:09:01.871Z,75.20
2019-04-28T00:10:34.145Z,75.50
2019-04-28T00:12:06.515Z,75.20
2019-04-28T00:13:38.733Z,75.20
2019-04-28T00:15:11.208Z,75.30
2019-04-28T00:16:43.506Z,75.00
2019-04-28T00:18:15.793Z,75.30
2019-04-28T00:19:48.040Z,75.40
2019-04-28T00:21:26.558Z,75.20
2019-04-28T00:23:08.232Z,75.20
2019-04-28T00:25:01.583Z,75.10
2019-04-28T00:26:41.089Z,75.20
2019-04-28T00:28:13.373Z,75.30
2019-04-28T00:29:46.281Z,75.20
2019-04-28T00:31:18.757Z,75.30
2019-04-28T00:32:51.861Z,75.10
2019-04-28T00:34:24.151Z,75.20
2019-04-28T00:35:57.496Z,75.30
2019-04-28T00:37:32.132Z,75.30
2019-04-28T00:39:05.413Z,75.00
2019-04-28T00:40:37.687Z,75.20
2019-04-28T00:42:11.808Z,75.30
2019-04-28T00:43:44.116Z,75.10
2019-04-28T00:45:16.526Z,75.20
2019-04-28T00:46:48.763Z,75.00
2019-04-28T00:48:21.050Z,74.90
2019-04-28T00:49:53.335Z,74.70
2019-04-28T00:51:25.467Z,74.50
2019-04-28T00:52:57.744Z,74.70
2019-04-28T00:54:31.673Z,74.70
2019-04-28T00:56:04.104Z,74.90
2019-04-28T00:57:36.214Z,75.00
2019-04-28T00:59:08.462Z,75.00
2019-04-28T01:00:42.625Z,74.80
2019-04-28T01:02:31.003Z,74.90
2019-04-28T01:04:03.200Z,74.90
2019-04-28T01:05:35.333Z,74.70
2019-04-28T01:07:07.507Z,74.80
2019-04-28T01:08:39.588Z,74.80
2019-04-28T01:10:12.450Z,74.50
2019-04-28T01:11:44.582Z,74.60
2019-04-28T01:13:16.696Z,74.40
2019-04-28T01:14:49.782Z,74.80
2019-04-28T01:16:32.688Z,74.80
2019-04-28T01:18:10.751Z,74.80
2019-04-28T01:19:45.536Z,75.00
2019-04-28T01:21:17.788Z,74.70
2019-04-28T01:22:50.051Z,74.80
2019-04-28T01:24:22.308Z,74.80
2019-04-28T01:25:54.598Z,74.90
2019-04-28T01:27:50.453Z,75.10
2019-04-28T01:29:22.790Z,74.80
2019-04-28T01:31:03.235Z,74.90
2019-04-28T01:32:41.940Z,75.00
2019-04-28T01:34:20.875Z,75.20
2019-04-28T01:35:53.092Z,75.00
2019-04-28T01:37:25.364Z,75.10
2019-04-28T01:38:57.635Z,75.80
2019-04-28T01:40:30.454Z,75.10
2019-04-28T01:42:02.729Z,74.80
2019-04-28T01:43:35.009Z,74.70
2019-04-28T01:45:07.104Z,74.50
2019-04-28T01:46:39.938Z,74.90
2019-04-28T01:48:12.272Z,74.70
2019-04-28T01:49:44.426Z,74.90
2019-04-28T01:51:16.504Z,75.00
2019-04-28T01:52:49.725Z,75.00
2019-04-28T01:54:22.915Z,75.00
2019-04-28T01:55:55.168Z,75.10
2019-04-28T01:57:27.256Z,75.10
2019-04-28T01:59:00.273Z,75.40
2019-04-28T02:00:32.739Z,75.20
2019-04-28T02:02:04.818Z,75.30
2019-04-28T02:03:37.084Z,75.20
2019-04-28T02:05:09.757Z,75.50
2019-04-28T02:06:42.020Z,75.70
2019-04-28T02:08:14.282Z,76.00
2019-04-28T02:09:46.553Z,76.10
2019-04-28T02:11:19.820Z,76.10
2019-04-28T02:12:52.135Z,76.20
2019-04-28T02:14:24.217Z,76.30
2019-04-28T02:15:56.350Z,76.40
2019-04-28T02:17:30.488Z,76.50
2019-04-28T02:19:02.922Z,76.80
2019-04-28T02:20:35.898Z,76.70
2019-04-28T02:22:20.454Z,76.70
2019-04-28T02:23:54.438Z,76.90
2019-04-28T02:25:26.589Z,77.00
2019-04-28T02:27:00.812Z,76.70
2019-04-28T02:28:33.313Z,76.80
2019-04-28T02:30:10.967Z,77.00
2019-04-28T02:31:42.031Z,76.80
2019-04-28T02:33:14.533Z,77.30
2019-04-28T02:34:46.989Z,77.30
2019-04-28T02:36:20.756Z,77.30
2019-04-28T02:37:53.053Z,77.70
2019-04-28T02:39:25.463Z,77.70
2019-04-28T02:41:00.019Z,77.70
2019-04-28T02:42:31.641Z,78.00
2019-04-28T02:44:04.106Z,77.90
2019-04-28T02:45:37.660Z,77.70
2019-04-28T02:47:10.794Z,77.60
2019-04-28T02:48:43.541Z,77.70
2019-04-28T02:50:22.819Z,77.30
2019-04-28T02:52:04.226Z,77.10
2019-04-28T02:53:40.891Z,77.10
2019-04-28T02:55:13.251Z,77.40
2019-04-28T02:56:45.369Z,77.30
2019-04-28T02:58:17.628Z,77.30
2019-04-28T02:59:50.970Z,77.50
2019-04-28T03:01:26.746Z,77.80
2019-04-28T03:02:57.612Z,77.90
2019-04-28T03:04:30.812Z,77.50
2019-04-28T03:06:03.195Z,77.50
2019-04-28T03:07:35.305Z,78.00
2019-04-28T03:09:10.382Z,78.10
2019-04-28T03:10:41.870Z,78.20
2019-04-28T03:12:14.000Z,78.10
2019-04-28T03:13:46.108Z,78.30
2019-04-28T03:15:20.427Z,78.50
2019-04-28T03:16:52.554Z,78.40
2019-04-28T03:18:24.844Z,78.60
2019-04-28T03:19:56.967Z,78.60
2019-04-28T03:21:31.296Z,78.80
2019-04-28T03:23:03.739Z,78.90
2019-04-28T03:24:36.074Z,79.00
2019-04-28T03:26:26.445Z,79.10
2019-04-28T03:28:21.526Z,79.00
2019-04-28T03:30:00.450Z,79.40
2019-04-28T03:32:25.307Z,78.90
2019-04-28T03:33:48.002Z,78.80
2019-04-28T03:35:14.664Z,79.00
2019-04-28T03:36:46.756Z,78.90
2019-04-28T03:38:21.362Z,78.80
2019-04-28T03:39:52.941Z,78.90
2019-04-28T03:41:25.070Z,78.80
2019-04-28T03:43:00.271Z,79.10
2019-04-28T03:44:33.815Z,79.10
2019-04-28T03:46:11.521Z,78.80
2019-04-28T03:47:43.804Z,78.80
2019-04-28T03:49:32.178Z,79.20
2019-04-28T03:51:04.410Z,79.10
2019-04-28T03:52:36.640Z,79.20
2019-04-28T03:54:10.367Z,79.30
2019-04-28T03:55:42.748Z,79.20
2019-04-28T03:57:14.845Z,79.70
2019-04-28T03:58:46.946Z,79.60
2019-04-28T04:00:21.758Z,79.80
2019-04-28T04:01:59.389Z,80.00
2019-04-28T04:03:30.369Z,80.00
2019-04-28T04:05:03.993Z,80.00
2019-04-28T04:06:35.979Z,80.50
2019-04-28T04:08:10.665Z,80.40
2019-04-28T04:10:04.319Z,80.50
2019-04-28T04:11:56.058Z,81.30
2019-04-28T04:13:43.325Z,80.90
2019-04-28T04:15:54.776Z,80.90
2019-04-28T04:17:33.631Z,81.20
2019-04-28T04:19:06.509Z,81.00
2019-04-28T04:20:40.443Z,81.20
2019-04-28T04:22:12.713Z,81.30
2019-04-28T04:23:44.968Z,81.20
2019-04-28T04:25:20.332Z,81.30
2019-04-28T04:26:52.578Z,81.40
2019-04-28T04:28:24.828Z,81.80
2019-04-28T04:29:56.941Z,81.50
2019-04-28T04:31:31.480Z,81.40
2019-04-28T04:33:03.330Z,81.40
2019-04-28T04:34:35.455Z,81.20
2019-04-28T04:36:07.592Z,81.30
2019-04-28T04:37:40.607Z,81.10
2019-04-28T04:39:12.953Z,81.20
2019-04-28T04:40:45.077Z,81.70
2019-04-28T04:42:17.233Z,81.20
2019-04-28T04:43:51.290Z,80.80
2019-04-28T04:45:23.520Z,80.80
2019-04-28T04:46:55.784Z,80.90
2019-04-28T04:48:27.912Z,81.20
2019-04-28T04:50:00.404Z,81.00
2019-04-28T04:51:32.773Z,81.80
2019-04-28T04:53:04.893Z,81.50
2019-04-28T04:54:37.216Z,81.30
2019-04-28T04:56:10.512Z,80.80
2019-04-28T04:57:42.937Z,81.70
2019-04-28T04:59:16.817Z,80.40
2019-04-28T05:01:01.454Z,80.40
2019-04-28T05:02:50.721Z,80.50
2019-04-28T05:04:31.094Z,81.20
2019-04-28T05:06:22.837Z,81.60
2019-04-28T05:07:55.147Z,81.00
2019-04-28T05:09:29.558Z,81.00
2019-04-28T05:11:02.661Z,80.50
2019-04-28T05:12:34.890Z,81.00
2019-04-28T05:14:07.617Z,80.70
2019-04-28T05:15:40.172Z,80.70
2019-04-28T05:17:12.491Z,80.80
2019-04-28T05:18:44.728Z,80.50
2019-04-28T05:20:16.972Z,80.90
2019-04-28T05:21:49.863Z,80.70
2019-04-28T05:23:46.570Z,80.40
2019-04-28T05:25:30.970Z,80.30
2019-04-28T05:27:01.702Z,80.10
2019-04-28T05:28:36.904Z,80.50
2019-04-28T05:30:08.128Z,80.40
2019-04-28T05:31:40.425Z,80.10
2019-04-28T05:33:30.798Z,80.80
2019-04-28T05:35:00.216Z,81.30
2019-04-28T05:36:41.162Z,80.50
2019-04-28T05:38:06.949Z,81.00
2019-04-28T05:39:40.489Z,80.70
2019-04-28T05:41:13.082Z,80.30
2019-04-28T05:42:58.045Z,80.20
2019-04-28T05:44:31.952Z,80.40
2019-04-28T05:46:04.507Z,80.00
2019-04-28T05:47:36.875Z,80.00
2019-04-28T05:49:15.435Z,79.70
2019-04-28T05:50:54.787Z,79.70
2019-04-28T05:53:01.548Z,79.80
2019-04-28T05:54:42.104Z,79.40
2019-04-28T05:56:22.871Z,79.50
2019-04-28T05:58:02.199Z,79.40
2019-04-28T05:59:43.322Z,79.60
2019-04-28T06:01:22.524Z,79.40
2019-04-28T06:02:57.155Z,79.40
2019-04-28T06:04:30.469Z,79.20
2019-04-28T06:06:03.025Z,79.00
2019-04-28T06:07:49.929Z,79.30
2019-04-28T06:09:32.794Z,79.00
2019-04-28T06:11:24.540Z,79.30
2019-04-28T06:12:56.717Z,79.20
2019-04-28T06:14:30.035Z,79.30
2019-04-28T06:16:02.380Z,79.20
2019-04-28T06:17:34.467Z,78.90
2019-04-28T06:19:06.620Z,78.90
2019-04-28T06:20:40.512Z,79.10
2019-04-28T06:22:12.843Z,78.70
2019-04-28T06:23:45.117Z,78.10
2019-04-28T06:25:17.237Z,77.90
2019-04-28T06:26:49.367Z,78.10
2019-04-28T06:28:21.647Z,77.80
2019-04-28T06:29:53.881Z,78.10
2019-04-28T06:31:26.136Z,77.70
2019-04-28T06:33:07.563Z,77.70
2019-04-28T06:34:32.524Z,77.70
2019-04-28T06:36:04.636Z,77.70
2019-04-28T06:37:36.968Z,77.70
2019-04-28T06:39:09.503Z,77.60
2019-04-28T06:40:41.848Z,77.40
2019-04-28T06:42:14.129Z,77.00
2019-04-28T06:43:46.413Z,77.00
2019-04-28T06:45:19.454Z,76.60
2019-04-28T06:46:51.619Z,76.50
2019-04-28T06:48:23.921Z,76.30
2019-04-28T06:49:56.205Z,76.30
2019-04-28T06:51:28.444Z,76.30
2019-04-28T06:53:02.923Z,76.60
2019-04-28T06:54:34.654Z,76.20
2019-04-28T06:56:06.916Z,76.00
2019-04-28T06:57:39.060Z,75.90
2019-04-28T06:59:11.192Z,76.00
2019-04-28T07:00:43.497Z,76.10
2019-04-28T07:02:15.781Z,76.00
2019-04-28T07:03:48.048Z,75.70
2019-04-28T07:05:20.206Z,75.60
2019-04-28T07:06:52.328Z,75.70
2019-04-28T07:08:24.460Z,75.90
2019-04-28T07:09:56.588Z,75.20
2019-04-28T07:11:28.870Z,75.20
2019-04-28T07:13:01.106Z,75.90
2019-04-28T07:14:33.229Z,75.20
2019-04-28T07:16:05.370Z,74.90
2019-04-28T07:17:37.448Z,74.60
2019-04-28T07:19:09.679Z,74.10
2019-04-28T07:20:51.261Z,73.80
2019-04-28T07:22:27.125Z,73.90
2019-04-28T07:23:59.387Z,74.10
2019-04-28T07:25:31.629Z,73.90
2019-04-28T07:27:05.350Z,73.80
2019-04-28T07:28:37.432Z,73.50
2019-04-28T07:30:09.771Z,73.40
2019-04-28T07:31:42.025Z,73.70
2019-04-28T07:33:14.276Z,73.40
2019-04-28T07:34:46.521Z,73.00
2019-04-28T07:36:18.673Z,72.80
2019-04-28T07:37:50.937Z,72.30
2019-04-28T07:39:23.032Z,71.30
2019-04-28T07:40:56.890Z,69.70
2019-04-28T07:42:29.157Z,68.90
2019-04-28T07:44:01.419Z,68.30
2019-04-28T07:45:33.744Z,68.30
2019-04-28T07:47:06.012Z,68.30
2019-04-28T07:48:38.202Z,68.30
2019-04-28T07:50:12.455Z,68.10
2019-04-28T07:52:07.020Z,69.00
2019-04-28T07:53:55.452Z,68.10
2019-04-28T07:55:28.803Z,68.20
2019-04-28T07:57:00.898Z,68.40
2019-04-28T07:58:33.185Z,68.60
2019-04-28T08:00:06.155Z,69.10
2019-04-28T08:01:39.503Z,68.50
2019-04-28T08:03:11.664Z,69.20
2019-04-28T08:04:43.786Z,69.40
2019-04-28T08:06:15.911Z,69.30
2019-04-28T08:07:48.050Z,69.20
2019-04-28T08:09:20.508Z,68.20
2019-04-28T08:10:52.593Z,67.70
2019-04-28T08:12:24.709Z,67.90
2019-04-28T08:13:56.840Z,67.90
2019-04-28T08:15:28.959Z,67.90
2019-04-28T08:17:01.211Z,67.70
2019-04-28T08:18:33.349Z,67.90
2019-04-28T08:20:05.864Z,68.00
2019-04-28T08:21:38.199Z,68.20
2019-04-28T08:23:10.476Z,67.80
2019-04-28T08:24:42.638Z,67.90
2019-04-28T08:26:14.802Z,66.60
2019-04-28T08:27:46.895Z,67.10
2019-04-28T08:29:19.013Z,67.40
2019-04-28T08:30:51.314Z,67.30
2019-04-28T08:32:35.908Z,67.30
2019-04-28T08:34:08.115Z,67.40
2019-04-28T08:35:40.384Z,67.40
2019-04-28T08:37:12.656Z,67.60
2019-04-28T08:38:44.958Z,67.40
2019-04-28T08:40:17.216Z,67.80
2019-04-28T08:41:49.504Z,67.40
2019-04-28T08:43:21.750Z,66.80
2019-04-28T08:44:53.992Z,66.00
2019-04-28T08:46:26.255Z,65.30
2019-04-28T08:47:58.408Z,64.00
2019-04-28T08:49:30.613Z,62.20
2019-04-28T08:51:04.007Z,63.00
2019-04-28T08:52:36.130Z,62.10
2019-04-28T08:54:08.284Z,61.30
2019-04-28T08:55:40.445Z,61.80
2019-04-28T08:57:12.695Z,60.70
2019-04-28T08:58:44.839Z,61.90
2019-04-28T09:00:18.302Z,62.10
2019-04-28T09:01:50.434Z,59.30
2019-04-28T09:03:22.705Z,61.30
2019-04-28T09:04:54.810Z,62.80
2019-04-28T09:06:27.094Z,61.60
2019-04-28T09:07:59.351Z,61.60
2019-04-28T09:09:31.495Z,60.70
2019-04-28T09:11:03.959Z,60.00
2019-04-28T09:12:36.123Z,59.20
2019-04-28T09:14:08.309Z,58.40
2019-04-28T09:15:40.429Z,58.50
2019-04-28T09:17:12.548Z,59.10
2019-04-28T09:18:44.643Z,59.10
2019-04-28T09:20:16.831Z,60.00
2019-04-28T09:21:49.085Z,59.20
2019-04-28T09:23:21.195Z,59.30
2019-04-28T09:24:53.322Z,58.00
2019-04-28T09:26:25.511Z,57.40
2019-04-28T09:27:57.636Z,58.70
2019-04-28T09:29:29.789Z,59.20
2019-04-28T09:31:02.442Z,59.20
2019-04-28T09:32:34.588Z,59.30
2019-04-28T09:34:06.810Z,59.70
2019-04-28T09:35:39.057Z,58.60
2019-04-28T09:37:11.328Z,58.90
2019-04-28T09:38:43.748Z,59.20
2019-04-28T09:40:17.117Z,59.00
2019-04-28T09:42:24.346Z,57.30
2019-04-28T09:44:27.756Z,56.10
2019-04-28T09:46:06.320Z,58.20
2019-04-28T09:47:38.633Z,57.70
2019-04-28T09:49:10.773Z,56.30
2019-04-28T09:50:43.002Z,56.10
2019-04-28T09:52:15.298Z,56.20
2019-04-28T09:53:47.581Z,53.70
2019-04-28T09:55:19.923Z,54.10
2019-04-28T09:56:56.805Z,54.80
2019-04-28T09:58:26.107Z,54.80
2019-04-28T09:59:58.235Z,54.70
2019-04-28T10:01:30.492Z,54.60
2019-04-28T10:03:02.611Z,55.40
2019-04-28T10:04:41.420Z,56.30
2019-04-28T10:06:08.909Z,56.20
2019-04-28T10:07:40.973Z,55.40
2019-04-28T10:09:13.817Z,54.90
2019-04-28T10:10:46.044Z,55.70
2019-04-28T10:12:26.897Z,56.60
2019-04-28T10:13:52.427Z,57.00
2019-04-28T10:15:24.820Z,55.60
2019-04-28T10:16:57.066Z,55.00
2019-04-28T10:18:29.331Z,54.80
2019-04-28T10:20:01.566Z,53.20
2019-04-28T10:21:33.878Z,55.40
2019-04-28T10:23:06.108Z,55.00
2019-04-28T10:24:38.379Z,56.00
2019-04-28T10:26:10.589Z,56.40
2019-04-28T10:27:42.840Z,55.20
2019-04-28T10:29:15.098Z,54.70
2019-04-28T10:30:47.343Z,54.70
2019-04-28T10:32:19.574Z,56.30
2019-04-28T10:33:55.788Z,56.30
2019-04-28T10:35:28.052Z,55.90
2019-04-28T10:37:00.120Z,54.70
2019-04-28T10:38:32.258Z,55.90
2019-04-28T10:40:11.227Z,56.50
2019-04-28T10:41:43.540Z,56.80
2019-04-28T10:43:15.759Z,57.00
2019-04-28T10:44:48.546Z,56.40
2019-04-28T10:46:20.772Z,56.80
2019-04-28T10:47:53.075Z,57.00
2019-04-28T10:49:25.483Z,57.20
2019-04-28T10:50:57.800Z,56.80
2019-04-28T10:52:29.927Z,56.80
2019-04-28T10:54:02.056Z,56.80
2019-04-28T10:55:34.248Z,56.80
2019-04-28T10:57:06.657Z,56.60
2019-04-28T10:58:40.711Z,56.50
2019-04-28T11:00:13.998Z,56.90
2019-04-28T11:01:47.496Z,57.30
2019-04-28T11:03:19.843Z,56.90
2019-04-28T11:05:08.241Z,57.40
2019-04-28T11:06:32.589Z,57.10
2019-04-28T11:08:07.785Z,57.50
2019-04-28T11:09:43.868Z,58.10
2019-04-28T11:11:20.327Z,58.10
2019-04-28T11:12:52.456Z,58.30
2019-04-28T11:14:24.696Z,58.50
2019-04-28T11:15:56.969Z,58.70
2019-04-28T11:17:29.407Z,57.90
2019-04-28T11:19:01.745Z,57.40
2019-04-28T11:20:53.787Z,58.50
2019-04-28T11:23:10.075Z,58.90
2019-04-28T11:25:05.670Z,58.90
2019-04-28T11:26:38.009Z,59.80
2019-04-28T11:28:10.581Z,59.90
2019-04-28T11:29:42.821Z,60.60
2019-04-28T11:31:15.750Z,60.10
2019-04-28T11:33:00.352Z,60.60
2019-04-28T11:34:58.066Z,61.40
2019-04-28T11:36:30.296Z,62.10
2019-04-28T11:38:02.535Z,63.40
2019-04-28T11:39:39.434Z,62.70
2019-04-28T11:41:11.744Z,62.90
2019-04-28T11:42:44.152Z,63.10
2019-04-28T11:44:16.321Z,62.80
2019-04-28T11:45:48.589Z,61.90
2019-04-28T11:47:22.181Z,62.90
2019-04-28T11:48:54.449Z,63.80
2019-04-28T11:50:26.699Z,64.50
2019-04-28T11:51:58.772Z,64.70
2019-04-28T11:53:30.994Z,64.60
2019-04-28T11:55:04.036Z,64.40
2019-04-28T11:56:41.674Z,64.30
2019-04-28T11:58:10.160Z,64.70
2019-04-28T11:59:42.380Z,64.20
2019-04-28T12:01:14.666Z,64.40
2019-04-28T12:02:46.819Z,64.60
2019-04-28T12:04:19.875Z,64.30
2019-04-28T12:05:52.152Z,63.10
2019-04-28T12:07:24.307Z,63.70
2019-04-28T12:09:01.400Z,63.20
2019-04-28T12:10:37.189Z,62.90
2019-04-28T12:12:19.851Z,62.50
2019-04-28T12:14:09.280Z,62.50
2019-04-28T12:16:03.992Z,63.50
2019-04-28T12:17:45.014Z,63.50
2019-04-28T12:19:21.512Z,63.80
2019-04-28T12:20:53.624Z,63.80
2019-04-28T12:22:25.758Z,64.20
2019-04-28T12:23:58.014Z,63.70
2019-04-28T12:25:30.134Z,64.00
2019-04-28T12:27:02.394Z,64.70
2019-04-28T12:28:34.502Z,65.50
2019-04-28T12:30:06.798Z,65.90
2019-04-28T12:31:38.994Z,66.40
2019-04-28T12:33:11.272Z,67.10
2019-04-28T12:34:43.566Z,67.20
2019-04-28T12:36:15.962Z,67.80
2019-04-28T12:37:48.119Z,68.10
2019-04-28T12:39:20.356Z,68.90
2019-04-28T12:40:52.506Z,69.30
2019-04-28T12:42:24.783Z,69.00
2019-04-28T12:43:56.999Z,69.40
2019-04-28T12:45:35.211Z,69.80
2019-04-28T12:47:05.242Z,69.90
2019-04-28T12:48:37.356Z,69.80
2019-04-28T12:50:20.301Z,69.30
2019-04-28T12:51:52.404Z,68.90
2019-04-28T12:53:24.790Z,69.00
2019-04-28T12:54:56.907Z,68.80
2019-04-28T12:56:29.140Z,67.50
2019-04-28T12:58:02.761Z,66.90
2019-04-28T12:59:41.365Z,66.70
2019-04-28T13:01:22.230Z,67.30
2019-04-28T13:03:12.744Z,68.10
2019-04-28T13:04:48.707Z,67.40
2019-04-28T13:06:21.380Z,67.70
2019-04-28T13:07:53.495Z,66.80
2019-04-28T13:09:25.740Z,66.30
2019-04-28T13:10:57.980Z,66.50
2019-04-28T13:12:30.099Z,66.50
2019-04-28T13:14:02.259Z,66.00
2019-04-28T13:15:36.182Z,66.10
2019-04-28T13:17:08.278Z,66.10
2019-04-28T13:18:40.344Z,66.20
2019-04-28T13:20:13.105Z,67.10
2019-04-28T13:21:45.333Z,67.60
2019-04-28T13:23:17.501Z,67.40
2019-04-28T13:24:49.710Z,67.70
2019-04-28T13:26:21.936Z,66.60
2019-04-28T13:27:54.274Z,66.80
2019-04-28T13:29:26.530Z,66.80
2019-04-28T13:30:58.770Z,67.10
2019-04-28T13:32:30.902Z,66.00
2019-04-28T13:34:05.035Z,65.70
2019-04-28T13:35:37.392Z,64.30
2019-04-28T13:37:09.772Z,63.10
2019-04-28T13:38:41.941Z,62.10
2019-04-28T13:40:23.292Z,62.60
2019-04-28T13:41:55.385Z,62.20
2019-04-28T13:43:27.650Z,62.40
2019-04-28T13:45:05.818Z,62.90
2019-04-28T13:46:38.129Z,63.00
2019-04-28T13:48:10.259Z,64.10
2019-04-28T13:49:51.281Z,64.80
2019-04-28T13:51:23.523Z,66.00
2019-04-28T13:52:55.780Z,65.90
2019-04-28T13:54:27.951Z,66.30
2019-04-28T13:56:02.421Z,66.30
2019-04-28T13:57:34.720Z,66.50
2019-04-28T13:59:12.925Z,67.20
2019-04-28T14:01:02.853Z,66.40
2019-04-28T14:02:57.342Z,65.80
2019-04-28T14:04:35.796Z,65.80
2019-04-28T14:06:10.673Z,63.90
2019-04-28T14:07:42.975Z,64.30
2019-04-28T14:09:16.328Z,64.60
2019-04-28T14:10:48.582Z,64.80
2019-04-28T14:12:22.484Z,64.10
2019-04-28T14:13:54.776Z,64.40
2019-04-28T14:15:27.080Z,64.60
2019-04-28T14:16:59.188Z,64.20
2019-04-28T14:18:31.789Z,63.50
2019-04-28T14:20:04.721Z,63.60
2019-04-28T14:21:36.835Z,63.90
2019-04-28T14:23:09.067Z,63.70
2019-04-28T14:24:41.200Z,63.80
2019-04-28T14:26:13.411Z,64.10
2019-04-28T14:27:45.738Z,63.90
2019-04-28T14:29:18.076Z,63.60
2019-04-28T14:30:50.191Z,63.60
2019-04-28T14:32:22.314Z,63.60
2019-04-28T14:33:54.450Z,64.50
2019-04-28T14:35:26.570Z,63.80
2019-04-28T14:36:58.860Z,63.60
2019-04-28T14:38:31.174Z,64.30
2019-04-28T14:40:04.461Z,63.70
2019-04-28T14:41:36.750Z,63.40
2019-04-28T14:43:09.013Z,63.20
2019-04-28T14:44:41.732Z,64.20
2019-04-28T14:46:13.957Z,62.60
2019-04-28T14:47:46.265Z,63.10
2019-04-28T14:49:18.487Z,63.20
2019-04-28T14:50:50.743Z,63.20
2019-04-28T14:52:23.048Z,63.20
2019-04-28T14:53:55.300Z,63.60
2019-04-28T14:55:27.421Z,63.50
2019-04-28T14:56:59.606Z,61.70
2019-04-28T14:58:31.835Z,61.20
2019-04-28T15:00:04.462Z,61.00
2019-04-28T15:02:08.123Z,61.50
2019-04-28T15:03:43.167Z,61.60
2019-04-28T15:05:21.774Z,61.80
2019-04-28T15:06:59.738Z,63.80
2019-04-28T15:08:39.879Z,62.90
2019-04-28T15:10:35.529Z,63.20
2019-04-28T15:12:07.759Z,64.20
2019-04-28T15:13:40.008Z,64.20
2019-04-28T15:15:12.927Z,64.40
2019-04-28T15:16:45.273Z,63.80
2019-04-28T15:18:17.438Z,63.90
2019-04-28T15:19:49.776Z,63.10
2019-04-28T15:21:21.935Z,63.20
2019-04-28T15:22:54.311Z,64.00
2019-04-28T15:24:27.711Z,64.10
2019-04-28T15:25:59.843Z,64.40
2019-04-28T15:27:31.944Z,64.40
2019-04-28T15:29:04.090Z,64.20
2019-04-28T15:30:36.312Z,64.20
2019-04-28T15:32:08.573Z,64.30
2019-04-28T15:33:40.810Z,63.80
2019-04-28T15:35:13.144Z,64.00
2019-04-28T15:36:45.226Z,64.40
2019-04-28T15:38:17.486Z,63.90
2019-04-28T15:39:49.567Z,62.70
2019-04-28T15:41:22.292Z,63.10
2019-04-28T15:42:54.462Z,63.10
2019-04-28T15:44:26.583Z,63.00
2019-04-28T15:45:58.687Z,62.40
2019-04-28T15:47:30.960Z,62.30
2019-04-28T15:49:03.209Z,61.30
2019-04-28T15:50:35.477Z,61.90
2019-04-28T15:52:07.685Z,62.40
2019-04-28T15:53:40.009Z,62.30
2019-04-28T15:55:16.803Z,63.30
2019-04-28T15:56:49.636Z,62.30
2019-04-28T15:58:37.557Z,62.10
2019-04-28T16:00:11.997Z,62.20
2019-04-28T16:01:44.298Z,62.60
2019-04-28T16:03:16.532Z,62.90
2019-04-28T16:04:48.690Z,62.60
2019-04-28T16:06:20.998Z,62.80
2019-04-28T16:07:53.268Z,63.00
2019-04-28T16:09:25.531Z,62.80
2019-04-28T16:10:57.850Z,62.50
2019-04-28T16:12:29.973Z,62.60
2019-04-28T16:14:02.290Z,62.70
2019-04-28T16:15:34.536Z,62.40
2019-04-28T16:17:07.076Z,62.10
2019-04-28T16:18:39.184Z,62.10
2019-04-28T16:20:11.573Z,62.00
2019-04-28T16:21:43.692Z,61.80
2019-04-28T16:23:15.835Z,61.90
2019-04-28T16:24:47.986Z,62.10
2019-04-28T16:26:22.814Z,62.40
2019-04-28T16:27:54.389Z,62.90
2019-04-28T16:29:26.623Z,63.40
2019-04-28T16:30:58.967Z,63.70
2019-04-28T16:32:31.184Z,63.70
2019-04-28T16:34:03.637Z,63.30
2019-04-28T16:35:35.783Z,63.20
2019-04-28T16:37:08.058Z,63.00
2019-04-28T16:38:40.446Z,62.80
2019-04-28T16:40:13.826Z,63.10
2019-04-28T16:41:52.955Z,63.30
2019-04-28T16:43:31.084Z,63.70
2019-04-28T16:45:11.862Z,62.90
2019-04-28T16:46:44.153Z,63.30
2019-04-28T16:48:16.411Z,63.40
2019-04-28T16:49:48.709Z,63.40
2019-04-28T16:51:20.982Z,63.50
2019-04-28T16:52:53.270Z,63.60
2019-04-28T16:54:25.411Z,63.20
2019-04-28T16:56:13.026Z,62.40
2019-04-28T16:58:03.605Z,61.80
2019-04-28T16:59:46.969Z,61.90
2019-04-28T17:01:32.384Z,61.90
2019-04-28T17:03:04.488Z,61.50
2019-04-28T17:04:36.717Z,61.50
2019-04-28T17:06:08.840Z,61.30
2019-04-28T17:07:52.026Z,61.70
2019-04-28T17:09:17.100Z,61.10
2019-04-28T17:10:49.730Z,62.00
2019-04-28T17:12:22.181Z,61.20
2019-04-28T17:13:54.332Z,61.50
2019-04-28T17:15:26.500Z,61.50
2019-04-28T17:16:58.754Z,61.70
2019-04-28T17:18:30.882Z,61.80
2019-04-28T17:20:04.312Z,61.90
2019-04-28T17:21:36.528Z,62.10
2019-04-28T17:23:08.622Z,62.20
2019-04-28T17:24:40.903Z,62.10
2019-04-28T17:26:13.117Z,61.70
2019-04-28T17:27:45.218Z,62.00
2019-04-28T17:29:17.496Z,62.00
2019-04-28T17:30:49.647Z,61.90
2019-04-28T17:32:21.802Z,61.70
2019-04-28T17:33:54.048Z,61.90
2019-04-28T17:35:26.321Z,61.70
2019-04-28T17:36:58.570Z,61.20
2019-04-28T17:38:30.692Z,61.10
2019-04-28T17:40:03.639Z,61.40
2019-04-28T17:41:35.736Z,61.40
2019-04-28T17:43:08.006Z,62.40
2019-04-28T17:44:40.256Z,61.90
2019-04-28T17:46:12.420Z,62.10
2019-04-28T17:47:45.144Z,62.50
2019-04-28T17:49:19.665Z,62.90
2019-04-28T17:50:51.930Z,63.10
2019-04-28T17:52:24.231Z,63.20
2019-04-28T17:53:56.468Z,63.50
2019-04-28T17:55:28.745Z,63.60
2019-04-28T17:57:01.163Z,63.90
2019-04-28T17:58:33.367Z,63.90
2019-04-28T18:00:14.408Z,64.00
2019-04-28T18:02:12.006Z,64.10
2019-04-28T18:03:59.892Z,64.10
2019-04-28T18:05:41.837Z,64.20
2019-04-28T18:07:18.718Z,64.20
2019-04-28T18:08:50.818Z,64.50
2019-04-28T18:10:24.614Z,65.00
2019-04-28T18:11:57.204Z,65.40
2019-04-28T18:13:29.309Z,65.60
2019-04-28T18:15:13.279Z,65.40
2019-04-28T18:17:05.023Z,65.60
2019-04-28T18:18:40.627Z,65.90
2019-04-28T18:20:12.950Z,66.30
2019-04-28T18:21:46.166Z,66.40
2019-04-28T18:23:18.441Z,66.70
2019-04-28T18:24:50.744Z,67.00
2019-04-28T18:26:22.856Z,67.10
2019-04-28T18:27:54.985Z,67.10
2019-04-28T18:29:27.198Z,67.20
2019-04-28T18:31:11.837Z,67.10
2019-04-28T18:32:56.668Z,67.50
2019-04-28T18:34:48.450Z,67.00
2019-04-28T18:36:27.327Z,68.00
2019-04-28T18:38:04.529Z,68.00
2019-04-28T18:39:55.075Z,68.30
2019-04-28T18:41:52.875Z,68.50
2019-04-28T18:43:47.504Z,68.40
2019-04-28T18:45:19.770Z,68.60
2019-04-28T18:46:51.924Z,68.80
2019-04-28T18:48:24.059Z,68.90
2019-04-28T18:49:56.437Z,68.80
2019-04-28T18:51:28.604Z,68.80
2019-04-28T18:53:00.725Z,69.00
2019-04-28T18:54:32.897Z,68.80
2019-04-28T18:56:05.164Z,68.90
2019-04-28T18:57:37.239Z,69.10
2019-04-28T18:59:09.520Z,69.00
2019-04-28T19:00:46.769Z,69.10
2019-04-28T19:02:28.149Z,69.50
2019-04-28T19:04:00.498Z,69.70
2019-04-28T19:05:35.203Z,69.80
2019-04-28T19:07:09.303Z,70.10
2019-04-28T19:08:49.188Z,70.30
2019-04-28T19:10:44.084Z,70.50
2019-04-28T19:12:44.794Z,70.70
2019-04-28T19:14:20.730Z,70.50
2019-04-28T19:16:07.739Z,70.60
2019-04-28T19:17:45.136Z,70.90
2019-04-28T19:19:17.794Z,70.70
2019-04-28T19:20:50.029Z,70.70
2019-04-28T19:22:22.147Z,70.90
2019-04-28T19:23:54.396Z,70.50
2019-04-28T19:25:26.484Z,71.00
2019-04-28T19:26:58.904Z,71.20
2019-04-28T19:28:31.036Z,71.00
2019-04-28T19:30:03.744Z,71.30
2019-04-28T19:31:36.055Z,71.50
2019-04-28T19:33:08.343Z,71.50
2019-04-28T19:34:40.455Z,71.90
2019-04-28T19:36:12.774Z,71.90
2019-04-28T19:37:46.513Z,72.20
2019-04-28T19:39:18.630Z,72.20
2019-04-28T19:40:50.753Z,72.40
2019-04-28T19:42:22.894Z,72.30
2019-04-28T19:43:55.174Z,72.50
2019-04-28T19:45:27.859Z,72.60
2019-04-28T19:47:01.929Z,72.50
2019-04-28T19:48:34.630Z,72.40
2019-04-28T19:50:06.960Z,72.50
2019-04-28T19:51:39.097Z,72.30
2019-04-28T19:53:11.383Z,72.60
2019-04-28T19:55:04.620Z,72.90
2019-04-28T19:56:41.361Z,73.10
2019-04-28T19:58:26.114Z,73.10
2019-04-28T20:00:26.930Z,73.60
2019-04-28T20:02:02.136Z,74.10
2019-04-28T20:03:33.198Z,74.20
2019-04-28T20:05:05.591Z,74.30
2019-04-28T20:06:37.722Z,74.50
2019-04-28T20:08:09.970Z,74.50
2019-04-28T20:09:42.084Z,74.40
2019-04-28T20:11:14.384Z,74.20
2019-04-28T20:12:47.768Z,74.70
2019-04-28T20:14:20.056Z,75.00
2019-04-28T20:15:52.261Z,74.80
2019-04-28T20:17:24.528Z,75.20
2019-04-28T20:18:56.622Z,75.10